createdAt,value
2023-01-07T00:01:40.422Z,100.00
2023-01-07T00:04:12.329Z,100.00
2023-01-07T00:06:43.406Z,100.00
2023-01-07T00:09:18.641Z,100.00
2023-01-07T00:11:46.435Z,100.00
2023-01-07T00:14:14.887Z,100.00
2023-01-07T00:16:43.052Z,100.00
2023-01-07T00:19:15.138Z,100.00
2023-01-07T00:21:43.608Z,100.00
2023-01-07T00:24:12.267Z,100.00
2023-01-07T00:26:41.087Z,100.00
2023-01-07T00:29:09.642Z,100.00
2023-01-07T00:31:40.258Z,100.00
2023-01-07T00:34:09.608Z,100.00
2023-01-07T00:36:42.682Z,100.00
2023-01-07T00:39:19.504Z,100.00
2023-01-07T00:42:08.692Z,100.00
2023-01-07T00:44:38.042Z,100.00
2023-01-07T00:47:05.827Z,100.00
2023-01-07T00:49:33.461Z,100.00
2023-01-07T00:52:01.061Z,100.00
2023-01-07T00:54:28.484Z,100.00
2023-01-07T00:56:56.129Z,100.00
2023-01-07T00:59:23.461Z,100.00
2023-01-07T01:01:51.237Z,100.00
2023-01-07T01:04:18.726Z,100.00
2023-01-07T01:06:46.609Z,100.00
2023-01-07T01:09:14.035Z,100.00
2023-01-07T01:11:42.284Z,100.00
2023-01-07T01:14:11.903Z,100.00
2023-01-07T01:16:39.725Z,100.00
2023-01-07T01:19:07.036Z,100.00
2023-01-07T01:21:34.681Z,100.00
2023-01-07T01:24:01.929Z,100.00
2023-01-07T01:26:29.559Z,100.00
2023-01-07T01:28:57.548Z,100.00
2023-01-07T01:31:25.574Z,100.00
2023-01-07T01:33:57.438Z,100.00
2023-01-07T01:36:25.349Z,100.00
2023-01-07T01:38:52.881Z,100.00
2023-01-07T01:41:20.671Z,100.00
2023-01-07T01:43:48.206Z,100.00
2023-01-07T01:46:28.375Z,100.00
2023-01-07T01:49:26.779Z,100.00
2023-01-07T01:52:08.680Z,100.00
2023-01-07T01:54:36.206Z,100.00
2023-01-07T01:57:09.056Z,100.00
2023-01-07T01:59:42.224Z,100.00
2023-01-07T02:02:10.313Z,100.00
2023-01-07T02:04:38.604Z,100.00
2023-01-07T02:07:15.153Z,100.00
2023-01-07T02:09:42.503Z,100.00
2023-01-07T02:12:16.118Z,100.00
2023-01-07T02:15:17.643Z,100.00
2023-01-07T02:18:17.024Z,100.00
2023-01-07T02:21:09.255Z,100.00
2023-01-07T02:24:30.250Z,100.00
2023-01-07T02:27:42.777Z,100.00
2023-01-07T02:30:19.803Z,100.00
2023-01-07T02:33:20.668Z,100.00
2023-01-07T02:36:32.606Z,100.00
2023-01-07T02:39:07.565Z,100.00
2023-01-07T02:42:08.822Z,100.00
2023-01-07T02:44:52.139Z,100.00
2023-01-07T02:47:34.362Z,100.00
2023-01-07T02:50:02.192Z,100.00
2023-01-07T02:52:33.914Z,100.00
2023-01-07T02:55:17.963Z,100.00
2023-01-07T02:58:15.416Z,100.00
2023-01-07T03:01:22.287Z,100.00
2023-01-07T03:04:32.805Z,100.00
2023-01-07T03:07:56.361Z,100.00
2023-01-07T03:10:39.374Z,100.00
2023-01-07T03:13:22.976Z,100.00
2023-01-07T03:16:05.959Z,100.00
2023-01-07T03:18:44.364Z,100.00
2023-01-07T03:21:18.023Z,100.00
2023-01-07T03:23:52.809Z,100.00
2023-01-07T03:26:27.057Z,100.00
2023-01-07T03:28:58.266Z,100.00
2023-01-07T03:31:28.718Z,100.00
2023-01-07T03:34:12.450Z,100.00
2023-01-07T03:36:49.773Z,100.00
2023-01-07T03:39:19.926Z,100.00
2023-01-07T03:42:09.306Z,100.00
2023-01-07T03:44:37.199Z,100.00
2023-01-07T03:47:06.021Z,100.00
2023-01-07T03:49:36.966Z,100.00
2023-01-07T03:52:04.883Z,100.00
2023-01-07T03:54:32.309Z,100.00
2023-01-07T03:57:00.094Z,100.00
2023-01-07T03:59:27.451Z,100.00
2023-01-07T04:01:55.149Z,100.00
2023-01-07T04:04:22.698Z,100.00
2023-01-07T04:06:50.259Z,100.00
2023-01-07T04:09:22.037Z,100.00
2023-01-07T04:11:49.645Z,100.00
2023-01-07T04:14:17.039Z,100.00
2023-01-07T04:16:44.704Z,100.00
2023-01-07T04:19:12.142Z,100.00
2023-01-07T04:21:39.761Z,100.00
2023-01-07T04:24:07.823Z,100.00
2023-01-07T04:26:35.706Z,100.00
2023-01-07T04:29:03.031Z,100.00
2023-01-07T04:31:30.713Z,100.00
2023-01-07T04:33:58.211Z,100.00
2023-01-07T04:36:26.023Z,100.00
2023-01-07T04:38:53.419Z,100.00
2023-01-07T04:41:21.278Z,100.00
2023-01-07T04:43:48.717Z,100.00
2023-01-07T04:46:16.448Z,100.00
2023-01-07T04:48:43.844Z,100.00
2023-01-07T04:51:11.458Z,100.00
2023-01-07T04:53:38.819Z,100.00
2023-01-07T04:56:06.992Z,100.00
2023-01-07T04:58:34.733Z,100.00
2023-01-07T05:01:07.182Z,100.00
2023-01-07T05:03:34.818Z,100.00
2023-01-07T05:06:03.304Z,100.00
2023-01-07T05:08:30.816Z,100.00
2023-01-07T05:10:58.563Z,100.00
2023-01-07T05:13:25.956Z,100.00
2023-01-07T05:15:53.815Z,100.00
2023-01-07T05:18:21.097Z,100.00
2023-01-07T05:20:48.750Z,100.00
2023-01-07T05:23:16.061Z,100.00
2023-01-07T05:25:43.715Z,100.00
2023-01-07T05:28:12.343Z,100.00
2023-01-07T05:30:40.367Z,100.00
2023-01-07T05:33:08.111Z,100.00
2023-01-07T05:35:36.445Z,100.00
2023-01-07T05:38:04.701Z,100.00
2023-01-07T05:40:32.408Z,100.00
2023-01-07T05:42:59.681Z,100.00
2023-01-07T05:45:27.344Z,100.00
2023-01-07T05:47:54.630Z,100.00
2023-01-07T05:50:22.295Z,100.00
2023-01-07T05:52:52.153Z,100.00
2023-01-07T05:55:19.825Z,100.00
2023-01-07T05:57:47.198Z,100.00
2023-01-07T06:00:15.583Z,100.00
2023-01-07T06:02:43.056Z,100.00
2023-01-07T06:05:11.297Z,100.00
2023-01-07T06:07:39.107Z,100.00
2023-01-07T06:10:07.329Z,100.00
2023-01-07T06:12:34.632Z,100.00
2023-01-07T06:15:02.418Z,100.00
2023-01-07T06:17:29.816Z,100.00
2023-01-07T06:19:57.474Z,100.00
2023-01-07T06:22:24.817Z,100.00
2023-01-07T06:24:52.490Z,100.00
2023-01-07T06:27:19.813Z,100.00
2023-01-07T06:29:47.441Z,100.00
2023-01-07T06:32:14.738Z,100.00
2023-01-07T06:34:42.325Z,100.00
2023-01-07T06:37:10.403Z,100.00
2023-01-07T06:39:37.972Z,100.00
2023-01-07T06:42:05.521Z,100.00
2023-01-07T06:44:33.220Z,100.00
2023-01-07T06:47:00.653Z,100.00
2023-01-07T06:49:28.304Z,100.00
2023-01-07T06:51:55.611Z,100.00
2023-01-07T06:54:23.241Z,100.00
2023-01-07T06:56:50.513Z,100.00
2023-01-07T06:59:18.120Z,100.00
2023-01-07T07:01:46.686Z,100.00
2023-01-07T07:04:14.491Z,100.00
2023-01-07T07:06:41.777Z,100.00
2023-01-07T07:09:09.516Z,100.00
2023-01-07T07:11:36.954Z,100.00
2023-01-07T07:14:06.442Z,100.00
2023-01-07T07:16:35.974Z,100.00
2023-01-07T07:19:03.643Z,100.00
2023-01-07T07:21:31.057Z,100.00
2023-01-07T07:24:00.642Z,100.00
2023-01-07T07:26:27.955Z,100.00
2023-01-07T07:28:55.557Z,100.00
2023-01-07T07:31:23.026Z,100.00
2023-01-07T07:33:50.757Z,100.00
2023-01-07T07:36:18.092Z,100.00
2023-01-07T07:38:45.715Z,100.00
2023-01-07T07:41:13.408Z,100.00
2023-01-07T07:43:41.131Z,100.00
2023-01-07T07:46:08.794Z,100.00
2023-01-07T07:48:36.494Z,100.00
2023-01-07T07:51:04.089Z,100.00
2023-01-07T07:53:32.524Z,100.00
2023-01-07T07:56:00.055Z,100.00
2023-01-07T07:58:27.885Z,100.00
2023-01-07T08:00:55.391Z,100.00
2023-01-07T08:03:24.070Z,100.00
2023-01-07T08:05:51.631Z,100.00
2023-01-07T08:08:19.336Z,100.00
2023-01-07T08:10:46.792Z,100.00
2023-01-07T08:13:14.509Z,100.00
2023-01-07T08:15:41.820Z,100.00
2023-01-07T08:18:10.561Z,100.00
2023-01-07T08:20:39.116Z,100.00
2023-01-07T08:23:09.199Z,100.00
2023-01-07T08:25:36.813Z,100.00
2023-01-07T08:28:05.063Z,100.00
2023-01-07T08:30:32.816Z,100.00
2023-01-07T08:33:03.469Z,100.00
2023-01-07T08:35:30.845Z,100.00
2023-01-07T08:38:08.021Z,100.00
2023-01-07T08:40:37.537Z,100.00
2023-01-07T08:43:08.580Z,99.56
2023-01-07T08:45:36.657Z,98.41
2023-01-07T08:48:05.315Z,96.44
2023-01-07T08:50:34.282Z,94.22
2023-01-07T08:53:01.985Z,85.81
2023-01-07T08:55:29.350Z,74.91
2023-01-07T08:57:57.256Z,70.32
2023-01-07T09:00:25.646Z,60.90
2023-01-07T09:02:53.329Z,57.18
2023-01-07T09:05:20.780Z,50.91
2023-01-07T09:07:53.510Z,48.42
2023-01-07T09:10:21.530Z,46.24
2023-01-07T09:12:50.057Z,42.55
2023-01-07T09:15:17.889Z,42.01
2023-01-07T09:17:45.902Z,40.66
2023-01-07T09:20:13.750Z,38.18
2023-01-07T09:22:41.454Z,39.36
2023-01-07T09:25:09.864Z,37.29
2023-01-07T09:27:38.585Z,36.46
2023-01-07T09:30:08.138Z,36.17
2023-01-07T09:32:35.876Z,37.24
2023-01-07T09:35:04.403Z,35.82
2023-01-07T09:37:32.427Z,33.90
2023-01-07T09:40:01.303Z,33.82
2023-01-07T09:42:37.688Z,32.05
2023-01-07T09:45:27.467Z,31.95
2023-01-07T09:48:01.298Z,31.32
2023-01-07T09:50:39.636Z,31.19
2023-01-07T09:53:21.060Z,31.96
2023-01-07T09:56:11.294Z,30.54
2023-01-07T09:58:44.594Z,30.07
2023-01-07T10:01:29.214Z,29.85
2023-01-07T10:03:59.933Z,29.99
2023-01-07T10:07:11.024Z,28.30
2023-01-07T10:10:05.698Z,27.23
2023-01-07T10:13:00.587Z,26.29
2023-01-07T10:16:15.870Z,27.51
2023-01-07T10:19:12.454Z,27.16
2023-01-07T10:22:16.487Z,26.93
2023-01-07T10:24:53.036Z,27.83
2023-01-07T10:27:35.673Z,28.25
2023-01-07T10:30:12.159Z,28.29
2023-01-07T10:32:40.389Z,27.40
2023-01-07T10:35:19.265Z,28.07
2023-01-07T10:37:47.428Z,28.07
2023-01-07T10:40:39.065Z,27.32
2023-01-07T10:43:43.726Z,26.60
2023-01-07T10:46:35.561Z,26.65
2023-01-07T10:49:45.152Z,25.14
2023-01-07T10:52:38.519Z,25.56
2023-01-07T10:55:29.446Z,24.34
2023-01-07T10:57:57.085Z,25.40
2023-01-07T11:00:26.175Z,25.93
2023-01-07T11:02:58.842Z,26.60
2023-01-07T11:05:37.530Z,26.82
2023-01-07T11:08:22.807Z,28.85
2023-01-07T11:10:51.147Z,28.68
2023-01-07T11:13:33.223Z,26.01
2023-01-07T11:16:17.887Z,23.85
2023-01-07T11:19:09.786Z,23.60
2023-01-07T11:21:48.812Z,23.01
2023-01-07T11:24:35.872Z,22.09
2023-01-07T11:27:19.095Z,21.68
2023-01-07T11:30:10.936Z,22.09
2023-01-07T11:32:41.002Z,22.57
2023-01-07T11:35:23.845Z,22.73
2023-01-07T11:37:51.836Z,22.58
2023-01-07T11:40:28.367Z,22.39
2023-01-07T11:42:58.621Z,22.36
2023-01-07T11:45:35.493Z,22.00
2023-01-07T11:48:09.986Z,22.27
2023-01-07T11:50:59.624Z,23.61
2023-01-07T11:53:49.989Z,23.54
2023-01-07T11:56:20.193Z,23.94
2023-01-07T11:58:51.833Z,22.53
2023-01-07T12:01:24.373Z,23.11
2023-01-07T12:03:52.180Z,22.68
2023-01-07T12:06:20.495Z,22.19
2023-01-07T12:09:25.876Z,21.51
2023-01-07T12:11:57.918Z,23.52
2023-01-07T12:14:28.631Z,22.18
2023-01-07T12:17:10.187Z,22.36
2023-01-07T12:19:51.731Z,22.67
2023-01-07T12:23:09.339Z,22.79
2023-01-07T12:26:01.301Z,22.51
2023-01-07T12:29:07.515Z,23.32
2023-01-07T12:32:15.671Z,24.58
2023-01-07T12:35:14.999Z,24.61
2023-01-07T12:38:34.166Z,23.77
2023-01-07T12:41:11.811Z,23.32
2023-01-07T12:44:03.062Z,23.29
2023-01-07T12:46:43.697Z,23.56
2023-01-07T12:49:21.852Z,23.02
2023-01-07T12:52:27.645Z,22.77
2023-01-07T12:55:04.635Z,22.47
2023-01-07T12:57:38.967Z,22.51
2023-01-07T13:00:32.008Z,23.41
2023-01-07T13:03:19.132Z,25.77
2023-01-07T13:06:00.051Z,24.71
2023-01-07T13:08:54.816Z,25.39
2023-01-07T13:11:52.700Z,25.07
2023-01-07T13:14:32.171Z,23.89
2023-01-07T13:17:21.487Z,22.87
2023-01-07T13:19:48.872Z,22.88
2023-01-07T13:22:56.600Z,22.40
2023-01-07T13:25:53.138Z,22.09
2023-01-07T13:29:05.243Z,21.47
2023-01-07T13:32:23.157Z,23.20
2023-01-07T13:35:05.381Z,21.97
2023-01-07T13:37:55.195Z,21.79
2023-01-07T13:41:02.800Z,21.58
2023-01-07T13:44:18.185Z,21.76
2023-01-07T13:46:47.953Z,21.88
2023-01-07T13:49:30.076Z,23.70
2023-01-07T13:52:22.095Z,26.36
2023-01-07T13:54:49.524Z,28.36
2023-01-07T13:57:39.579Z,30.19
2023-01-07T14:00:45.724Z,28.66
2023-01-07T14:03:28.422Z,27.87
2023-01-07T14:06:20.786Z,29.37
2023-01-07T14:09:05.688Z,32.10
2023-01-07T14:11:33.058Z,34.36
2023-01-07T14:14:38.656Z,37.00
2023-01-07T14:17:33.180Z,36.90
2023-01-07T14:20:25.797Z,35.74
2023-01-07T14:23:31.809Z,34.79
2023-01-07T14:26:22.861Z,34.57
2023-01-07T14:29:19.626Z,34.07
2023-01-07T14:31:47.671Z,33.54
2023-01-07T14:34:26.869Z,33.31
2023-01-07T14:37:05.099Z,34.20
2023-01-07T14:39:37.961Z,34.40
2023-01-07T14:42:21.066Z,35.20
2023-01-07T14:44:50.932Z,36.53
2023-01-07T14:47:43.561Z,38.91
2023-01-07T14:50:47.237Z,40.48
2023-01-07T14:53:51.129Z,41.42
2023-01-07T14:56:43.807Z,43.93
2023-01-07T14:59:46.246Z,45.78
2023-01-07T15:02:59.217Z,48.35
2023-01-07T15:05:26.914Z,49.94
2023-01-07T15:08:23.189Z,50.41
2023-01-07T15:11:14.107Z,52.81
2023-01-07T15:14:10.441Z,54.70
2023-01-07T15:16:39.277Z,55.10
2023-01-07T15:19:09.657Z,55.58
2023-01-07T15:21:51.992Z,57.29
2023-01-07T15:24:37.704Z,58.82
2023-01-07T15:27:33.681Z,59.11
2023-01-07T15:30:21.075Z,61.67
2023-01-07T15:33:02.958Z,61.35
2023-01-07T15:35:44.955Z,62.71
2023-01-07T15:38:35.042Z,62.17
2023-01-07T15:41:02.885Z,63.31
2023-01-07T15:43:31.891Z,63.10
2023-01-07T15:46:06.413Z,66.68
2023-01-07T15:48:34.394Z,65.52
2023-01-07T15:51:01.778Z,66.80
2023-01-07T15:53:30.547Z,65.73
2023-01-07T15:56:15.006Z,68.34
2023-01-07T15:58:51.180Z,68.60
2023-01-07T16:01:23.388Z,69.55
2023-01-07T16:03:56.815Z,70.26
2023-01-07T16:06:34.965Z,70.76
2023-01-07T16:09:18.647Z,70.90
2023-01-07T16:11:46.249Z,71.90
2023-01-07T16:14:26.801Z,72.47
2023-01-07T16:17:27.437Z,72.51
2023-01-07T16:20:29.828Z,73.12
2023-01-07T16:23:24.283Z,72.88
2023-01-07T16:26:13.358Z,72.65
2023-01-07T16:28:49.831Z,72.95
2023-01-07T16:31:22.783Z,72.66
2023-01-07T16:33:55.916Z,73.51
2023-01-07T16:36:30.979Z,75.07
2023-01-07T16:39:07.728Z,74.88
2023-01-07T16:41:35.632Z,75.77
2023-01-07T16:44:03.411Z,78.11
2023-01-07T16:46:43.009Z,78.98
2023-01-07T16:49:22.370Z,79.40
2023-01-07T16:52:14.195Z,79.24
2023-01-07T16:54:44.767Z,80.27
2023-01-07T16:57:12.395Z,80.99
2023-01-07T16:59:53.695Z,82.02
2023-01-07T17:02:53.876Z,81.63
2023-01-07T17:05:28.324Z,82.14
2023-01-07T17:08:07.068Z,82.36
2023-01-07T17:10:38.833Z,83.92
2023-01-07T17:13:15.818Z,85.32
2023-01-07T17:15:44.168Z,85.26
2023-01-07T17:18:11.723Z,85.37
2023-01-07T17:20:49.086Z,84.49
2023-01-07T17:23:28.535Z,84.45
2023-01-07T17:26:02.861Z,84.04
2023-01-07T17:28:45.862Z,83.53
2023-01-07T17:31:13.337Z,84.23
2023-01-07T17:33:42.580Z,85.30
2023-01-07T17:36:25.335Z,87.03
2023-01-07T17:38:53.857Z,87.35
2023-01-07T17:41:42.005Z,86.51
2023-01-07T17:44:13.003Z,87.29
2023-01-07T17:46:41.592Z,87.07
2023-01-07T17:49:11.631Z,86.19
2023-01-07T17:51:48.650Z,87.07
2023-01-07T17:54:24.220Z,86.27
2023-01-07T17:56:52.642Z,88.95
2023-01-07T17:59:23.483Z,89.79
2023-01-07T18:01:55.161Z,89.87
2023-01-07T18:04:23.268Z,90.47
2023-01-07T18:06:50.588Z,91.58
2023-01-07T18:09:18.187Z,90.71
2023-01-07T18:12:05.658Z,91.06
2023-01-07T18:14:33.432Z,91.90
2023-01-07T18:17:00.879Z,91.51
2023-01-07T18:19:28.595Z,92.15
2023-01-07T18:21:55.986Z,92.65
2023-01-07T18:24:23.726Z,91.92
2023-01-07T18:26:51.138Z,91.74
2023-01-07T18:29:18.776Z,90.92
2023-01-07T18:31:46.528Z,91.10
2023-01-07T18:34:15.985Z,91.08
2023-01-07T18:36:43.727Z,91.64
2023-01-07T18:39:19.408Z,90.39
2023-01-07T18:41:50.709Z,89.88
2023-01-07T18:44:19.904Z,90.29
2023-01-07T18:46:47.531Z,89.35
2023-01-07T18:49:15.605Z,88.65
2023-01-07T18:51:44.984Z,89.13
2023-01-07T18:54:12.680Z,90.14
2023-01-07T18:56:40.799Z,89.79
2023-01-07T18:59:08.585Z,91.08
2023-01-07T19:01:35.980Z,91.03
2023-01-07T19:04:05.214Z,91.22
2023-01-07T19:06:33.217Z,92.04
2023-01-07T19:09:00.984Z,92.54
2023-01-07T19:11:28.443Z,93.44
2023-01-07T19:13:56.219Z,92.96
2023-01-07T19:16:23.762Z,92.80
2023-01-07T19:18:53.216Z,92.80
2023-01-07T19:21:21.548Z,92.08
2023-01-07T19:23:49.373Z,91.94
2023-01-07T19:26:16.979Z,92.03
2023-01-07T19:28:44.821Z,91.45
2023-01-07T19:31:12.685Z,90.78
2023-01-07T19:33:40.831Z,90.53
2023-01-07T19:36:12.514Z,91.27
2023-01-07T19:38:43.589Z,91.51
2023-01-07T19:41:15.071Z,91.16
2023-01-07T19:43:43.497Z,91.77
2023-01-07T19:46:13.103Z,91.34
2023-01-07T19:48:41.627Z,91.35
2023-01-07T19:51:10.656Z,90.99
2023-01-07T19:53:39.644Z,90.81
2023-01-07T19:56:12.729Z,90.56
2023-01-07T19:58:42.139Z,90.92
2023-01-07T20:01:14.615Z,90.75
2023-01-07T20:03:43.701Z,90.40
2023-01-07T20:06:24.990Z,91.17
2023-01-07T20:08:55.222Z,91.33
2023-01-07T20:11:24.118Z,91.25
2023-01-07T20:13:51.858Z,91.28
2023-01-07T20:16:23.985Z,92.07
2023-01-07T20:18:54.961Z,91.31
2023-01-07T20:21:26.367Z,91.46
2023-01-07T20:23:54.689Z,92.24
2023-01-07T20:26:26.365Z,92.18
2023-01-07T20:28:55.488Z,92.05
2023-01-07T20:31:25.332Z,91.39
2023-01-07T20:33:55.920Z,91.15
2023-01-07T20:36:27.720Z,91.34
2023-01-07T20:38:56.916Z,91.31
2023-01-07T20:41:27.507Z,91.28
2023-01-07T20:44:01.813Z,92.11
2023-01-07T20:46:30.818Z,91.81
2023-01-07T20:48:59.244Z,91.49
2023-01-07T20:51:27.588Z,92.36
2023-01-07T20:53:55.484Z,91.94
2023-01-07T20:56:24.734Z,92.38
2023-01-07T20:58:52.782Z,92.39
2023-01-07T21:01:21.908Z,93.60
2023-01-07T21:03:50.078Z,93.14
2023-01-07T21:06:19.761Z,93.55
2023-01-07T21:08:49.570Z,92.88
2023-01-07T21:11:20.801Z,92.29
2023-01-07T21:13:50.401Z,91.90
2023-01-07T21:16:19.011Z,91.91
2023-01-07T21:18:47.211Z,91.84
2023-01-07T21:21:23.729Z,91.37
2023-01-07T21:23:53.524Z,91.15
2023-01-07T21:26:22.217Z,90.94
2023-01-07T21:28:56.072Z,90.27
2023-01-07T21:31:25.661Z,90.24
2023-01-07T21:33:58.351Z,89.65
2023-01-07T21:36:28.125Z,90.37
2023-01-07T21:38:58.936Z,90.39
2023-01-07T21:41:28.376Z,90.94
2023-01-07T21:43:56.584Z,90.83
2023-01-07T21:46:24.398Z,90.76
2023-01-07T21:48:52.159Z,91.09
2023-01-07T21:51:27.981Z,91.42
2023-01-07T21:53:58.043Z,91.44
2023-01-07T21:56:30.614Z,91.03
2023-01-07T21:58:59.326Z,91.19
2023-01-07T22:01:28.818Z,91.28
2023-01-07T22:03:59.060Z,91.03
2023-01-07T22:06:32.972Z,90.88
2023-01-07T22:09:06.778Z,90.29
2023-01-07T22:11:38.736Z,89.83
2023-01-07T22:14:06.496Z,90.45
2023-01-07T22:16:34.412Z,90.16
2023-01-07T22:19:02.148Z,90.30
2023-01-07T22:21:30.994Z,89.52
2023-01-07T22:23:58.985Z,89.54
2023-01-07T22:26:26.402Z,89.33
2023-01-07T22:28:59.478Z,89.51
2023-01-07T22:31:32.292Z,89.91
2023-01-07T22:34:00.370Z,89.50
2023-01-07T22:36:34.969Z,89.12
2023-01-07T22:39:10.455Z,88.68
2023-01-07T22:41:38.059Z,88.88
2023-01-07T22:44:16.786Z,88.77
2023-01-07T22:46:48.155Z,88.74
2023-01-07T22:49:17.171Z,88.98
2023-01-07T22:51:49.136Z,89.10
2023-01-07T22:54:17.701Z,88.81
2023-01-07T22:56:45.971Z,88.87
2023-01-07T22:59:13.686Z,89.12
2023-01-07T23:01:41.159Z,89.26
2023-01-07T23:04:09.431Z,89.43
2023-01-07T23:06:36.902Z,89.06
2023-01-07T23:09:05.130Z,89.47
2023-01-07T23:11:48.328Z,89.18
2023-01-07T23:14:21.740Z,89.06
2023-01-07T23:16:51.092Z,88.71
2023-01-07T23:19:21.202Z,88.43
2023-01-07T23:21:54.120Z,88.43
2023-01-07T23:24:23.644Z,88.60
2023-01-07T23:26:54.113Z,88.64
2023-01-07T23:29:22.348Z,88.64
2023-01-07T23:31:50.582Z,88.31
2023-01-07T23:34:19.443Z,88.25
2023-01-07T23:36:46.802Z,88.38
2023-01-07T23:39:14.482Z,88.46
2023-01-07T23:41:41.817Z,88.23
2023-01-07T23:44:09.612Z,88.62
2023-01-07T23:46:37.137Z,89.18
2023-01-07T23:49:04.996Z,89.06
2023-01-07T23:51:32.351Z,88.84
2023-01-07T23:54:00.015Z,89.43
2023-01-07T23:56:27.433Z,89.90
2023-01-07T23:58:55.115Z,90.23
